createdAt,value
2019-01-11T00:20:06.435Z,7.00
2019-01-11T00:32:17.528Z,7.20
2019-01-11T00:36:21.784Z,7.20
2019-01-11T00:40:25.865Z,7.20
2019-01-11T00:44:30.143Z,7.20
2019-01-11T00:48:34.258Z,7.20
2019-01-11T01:00:45.695Z,7.40
2019-01-11T01:04:49.792Z,7.40
2019-01-11T01:08:53.952Z,7.40
2019-01-11T01:17:01.593Z,7.40
2019-01-11T01:21:05.811Z,7.40
2019-01-11T01:25:10.205Z,7.40
2019-01-11T01:29:14.290Z,7.40
2019-01-11T01:37:23.520Z,7.40
2019-01-11T02:01:46.366Z,7.40
2019-01-11T02:09:54.483Z,7.40
2019-01-11T02:13:58.478Z,7.50
2019-01-11T02:18:02.650Z,7.50
2019-01-11T02:22:06.772Z,7.50
2019-01-11T02:38:23.518Z,7.60
2019-01-11T02:54:38.822Z,7.70
2019-01-11T02:58:42.744Z,7.70
2019-01-11T03:02:47.834Z,7.80
2019-01-11T03:10:56.106Z,7.80
2019-01-11T03:19:03.871Z,7.80
2019-01-11T03:23:07.965Z,7.90
2019-01-11T03:27:12.191Z,7.90
2019-01-11T03:31:25.725Z,7.90
2019-01-11T03:35:29.924Z,7.90
2019-01-11T03:43:37.837Z,8.00
2019-01-11T03:51:48.044Z,8.00
2019-01-11T03:59:56.248Z,8.20
2019-01-11T04:08:06.372Z,8.20
2019-01-11T04:16:14.122Z,8.20
2019-01-11T04:24:23.662Z,8.20
2019-01-11T04:32:31.155Z,8.40
2019-01-11T04:36:37.405Z,8.50
2019-01-11T04:40:41.595Z,8.40
2019-01-11T04:44:45.482Z,8.40
2019-01-11T04:52:53.164Z,8.40
2019-01-11T04:56:57.254Z,8.40
2019-01-11T05:01:01.688Z,8.40
2019-01-11T05:05:06.486Z,8.40
2019-01-11T05:09:10.658Z,8.40
2019-01-11T05:13:32.453Z,8.40
2019-01-11T05:25:43.730Z,8.40
2019-01-11T05:29:47.827Z,8.50
2019-01-11T05:37:55.712Z,8.50
2019-01-11T05:46:03.372Z,8.40
2019-01-11T05:54:11.914Z,8.50
2019-01-11T06:02:47.912Z,8.60
2019-01-11T06:31:39.763Z,8.70
2019-01-11T06:43:52.166Z,8.70
2019-01-11T06:52:00.012Z,8.80
2019-01-11T07:16:30.633Z,8.80
2019-01-11T07:20:34.567Z,8.70
2019-01-11T07:32:46.010Z,8.80
